createdAt,value
2022-11-12T00:01:36.638Z,7.82
2022-11-12T00:04:22.205Z,5.28
2022-11-12T00:07:08.101Z,7.32
2022-11-12T00:09:53.546Z,7.97
2022-11-12T00:12:39.192Z,7.53
2022-11-12T00:15:25.435Z,7.93
2022-11-12T00:18:10.765Z,6.38
2022-11-12T00:20:56.404Z,8.27
2022-11-12T00:23:42.017Z,6.53
2022-11-12T00:26:27.800Z,6.57
2022-11-12T00:29:13.301Z,9.10
2022-11-12T00:31:59.041Z,11.27
2022-11-12T00:34:44.595Z,7.65
2022-11-12T00:37:30.456Z,9.38
2022-11-12T00:40:16.167Z,8.70
2022-11-12T00:43:01.705Z,8.88
2022-11-12T00:45:46.998Z,10.30
2022-11-12T00:48:32.569Z,7.63
2022-11-12T00:51:18.391Z,8.00
2022-11-12T00:54:03.852Z,12.75
2022-11-12T00:56:49.468Z,7.45
2022-11-12T00:59:35.127Z,8.50
2022-11-12T01:02:22.214Z,22.33
2022-11-12T01:05:08.172Z,9.05
2022-11-12T01:07:56.152Z,5.80
2022-11-12T01:10:42.271Z,8.23
2022-11-12T01:13:27.735Z,5.13
2022-11-12T01:16:22.034Z,6.45
2022-11-12T01:19:10.108Z,5.50
2022-11-12T01:21:55.998Z,7.72
2022-11-12T01:24:41.439Z,8.50
2022-11-12T01:27:27.048Z,8.27
2022-11-12T01:30:12.383Z,5.93
2022-11-12T01:32:57.786Z,6.80
2022-11-12T01:35:43.367Z,6.70
2022-11-12T01:38:29.063Z,8.10
2022-11-12T01:41:19.035Z,6.93
2022-11-12T01:44:12.474Z,8.52
2022-11-12T01:47:00.840Z,4.38
2022-11-12T01:49:53.381Z,7.18
2022-11-12T01:52:48.833Z,5.57
2022-11-12T01:55:37.232Z,8.48
2022-11-12T01:58:27.173Z,8.60
2022-11-12T02:01:13.175Z,5.45
2022-11-12T02:03:58.973Z,6.90
2022-11-12T02:06:45.638Z,4.85
2022-11-12T02:09:31.970Z,4.57
2022-11-12T02:12:35.943Z,6.97
2022-11-12T02:15:21.225Z,6.18
2022-11-12T02:18:07.416Z,5.68
2022-11-12T02:20:58.090Z,5.07
2022-11-12T02:23:43.659Z,9.15
2022-11-12T02:26:35.408Z,4.78
2022-11-12T02:29:22.017Z,9.45
2022-11-12T02:32:07.326Z,4.40
2022-11-12T02:34:52.741Z,6.55
2022-11-12T02:37:38.344Z,4.32
2022-11-12T02:40:23.774Z,5.95
2022-11-12T02:43:09.415Z,6.10
2022-11-12T02:45:55.019Z,7.60
2022-11-12T02:48:40.291Z,6.10
2022-11-12T02:51:25.831Z,6.35
2022-11-12T02:54:11.346Z,4.65
2022-11-12T02:56:57.056Z,8.52
2022-11-12T02:59:42.503Z,6.25
2022-11-12T03:02:28.231Z,5.97
2022-11-12T03:05:14.878Z,4.15
2022-11-12T03:08:02.525Z,9.75
2022-11-12T03:10:47.882Z,8.85
2022-11-12T03:13:33.394Z,6.45
2022-11-12T03:16:18.929Z,7.40
2022-11-12T03:19:04.529Z,6.20
2022-11-12T03:21:50.093Z,7.25
2022-11-12T03:24:35.799Z,8.95
2022-11-12T03:27:21.353Z,6.65
2022-11-12T03:30:07.242Z,6.32
2022-11-12T03:32:53.052Z,8.52
2022-11-12T03:35:39.215Z,6.53
2022-11-12T03:38:25.307Z,4.53
2022-11-12T03:41:11.158Z,5.57
2022-11-12T03:43:56.674Z,5.78
2022-11-12T03:46:44.407Z,7.65
2022-11-12T03:49:30.070Z,5.53
2022-11-12T03:52:15.645Z,4.38
2022-11-12T03:55:01.197Z,9.60
2022-11-12T03:57:48.985Z,6.40
2022-11-12T04:00:34.450Z,6.40
2022-11-12T04:03:20.079Z,5.13
2022-11-12T04:06:25.131Z,3.92
2022-11-12T04:09:10.341Z,4.45
2022-11-12T04:11:55.976Z,3.40
2022-11-12T04:14:41.225Z,4.38
2022-11-12T04:17:45.329Z,4.60
2022-11-12T04:20:49.114Z,2.55
2022-11-12T04:23:34.424Z,3.58
2022-11-12T04:26:25.484Z,5.00
2022-11-12T04:32:17.408Z,3.53
2022-11-12T04:35:07.500Z,5.00
2022-11-12T04:37:53.762Z,4.55
2022-11-12T04:40:57.936Z,3.88
2022-11-12T04:44:02.237Z,2.97
2022-11-12T04:46:47.625Z,4.65
2022-11-12T04:49:33.122Z,5.18
2022-11-12T04:52:19.005Z,3.63
2022-11-12T04:55:04.530Z,3.90
2022-11-12T04:57:49.656Z,4.78
2022-11-12T05:00:35.306Z,5.80
2022-11-12T05:03:21.024Z,4.32
2022-11-12T05:06:27.173Z,3.83
2022-11-12T05:09:12.486Z,3.80
2022-11-12T05:11:58.000Z,5.05
2022-11-12T05:14:43.343Z,4.50
2022-11-12T05:17:28.952Z,3.90
2022-11-12T05:20:15.251Z,9.65
2022-11-12T05:23:08.092Z,3.47
2022-11-12T05:25:53.433Z,4.57
2022-11-12T05:28:38.955Z,5.15
2022-11-12T05:31:24.805Z,4.63
2022-11-12T05:34:10.270Z,8.30
2022-11-12T05:36:55.783Z,4.63
2022-11-12T05:39:41.249Z,5.32
2022-11-12T05:42:26.772Z,2.67
2022-11-12T05:45:12.053Z,4.85
2022-11-12T05:47:57.576Z,4.50
2022-11-12T05:51:06.319Z,3.40
2022-11-12T05:53:48.906Z,3.30
2022-11-12T05:56:35.538Z,2.67
2022-11-12T05:59:20.743Z,6.82
2022-11-12T06:02:06.451Z,3.33
2022-11-12T06:04:52.019Z,3.67
2022-11-12T06:07:37.781Z,3.35
2022-11-12T06:10:23.365Z,3.40
2022-11-12T06:13:08.689Z,2.80
2022-11-12T06:15:55.469Z,3.35
2022-11-12T06:18:40.950Z,5.45
2022-11-12T06:21:27.923Z,3.35
2022-11-12T06:24:14.766Z,4.15
2022-11-12T06:27:01.019Z,4.55
2022-11-12T06:29:46.546Z,5.65
2022-11-12T06:32:31.948Z,3.13
2022-11-12T06:35:19.014Z,3.40
2022-11-12T06:38:04.745Z,6.05
2022-11-12T06:40:50.114Z,3.67
2022-11-12T06:43:36.614Z,7.35
2022-11-12T06:46:22.285Z,4.97
2022-11-12T06:49:07.857Z,5.40
2022-11-12T06:51:53.247Z,4.07
2022-11-12T06:54:38.832Z,5.63
2022-11-12T06:57:24.144Z,6.80
2022-11-12T07:00:11.850Z,7.10
2022-11-12T07:02:57.749Z,3.58
2022-11-12T07:05:43.380Z,5.93
2022-11-12T07:08:29.255Z,7.05
2022-11-12T07:11:14.951Z,4.35
2022-11-12T07:14:00.262Z,4.53
2022-11-12T07:16:45.715Z,13.48
2022-11-12T07:19:31.167Z,8.45
2022-11-12T07:22:16.705Z,6.85
2022-11-12T07:25:02.166Z,10.40
2022-11-12T07:27:47.823Z,4.88
2022-11-12T07:30:33.063Z,5.25
2022-11-12T07:33:18.549Z,7.93
2022-11-12T07:36:09.155Z,4.85
2022-11-12T07:38:54.980Z,5.68
2022-11-12T07:41:40.497Z,6.47
2022-11-12T07:44:26.335Z,7.68
2022-11-12T07:47:12.032Z,6.28
2022-11-12T07:49:58.014Z,10.15
2022-11-12T07:52:43.346Z,5.85
2022-11-12T07:55:29.077Z,4.72
2022-11-12T07:58:14.800Z,7.75
2022-11-12T08:01:28.459Z,7.03
2022-11-12T08:04:14.275Z,6.07
2022-11-12T08:06:59.875Z,8.27
2022-11-12T08:09:45.328Z,8.25
2022-11-12T08:12:30.790Z,9.93
2022-11-12T08:15:16.721Z,11.48
2022-11-12T08:18:02.183Z,12.18
2022-11-12T08:20:47.418Z,6.75
2022-11-12T08:23:32.983Z,8.85
2022-11-12T08:26:20.436Z,8.23
2022-11-12T08:29:08.582Z,9.55
2022-11-12T08:31:54.446Z,8.68
2022-11-12T08:34:41.442Z,11.48
2022-11-12T08:37:27.073Z,8.90
2022-11-12T08:40:12.972Z,8.60
2022-11-12T08:43:03.396Z,7.13
2022-11-12T08:48:36.214Z,7.93
2022-11-12T08:51:21.876Z,11.35
2022-11-12T08:54:07.141Z,15.55
2022-11-12T08:56:52.744Z,12.43
2022-11-12T08:59:38.051Z,10.13
2022-11-12T09:02:23.721Z,7.72
2022-11-12T09:05:09.469Z,8.25
2022-11-12T09:08:16.465Z,9.45
2022-11-12T09:11:01.892Z,12.73
2022-11-12T09:13:47.735Z,11.10
2022-11-12T09:16:33.409Z,9.68
2022-11-12T09:19:19.251Z,7.80
2022-11-12T09:22:05.150Z,11.95
2022-11-12T09:24:50.793Z,10.77
2022-11-12T09:27:36.456Z,14.35
2022-11-12T09:30:22.754Z,10.15
2022-11-12T09:33:08.337Z,11.52
2022-11-12T09:35:55.142Z,11.05
2022-11-12T09:38:40.365Z,9.40
2022-11-12T09:41:35.290Z,11.77
2022-11-12T09:44:24.163Z,11.27
2022-11-12T09:47:23.793Z,9.88
2022-11-12T09:50:29.226Z,8.93
2022-11-12T09:53:17.510Z,8.30
2022-11-12T09:56:07.549Z,11.57
2022-11-12T09:58:53.979Z,8.15
2022-11-12T10:02:07.361Z,10.98
2022-11-12T10:05:11.591Z,16.88
2022-11-12T10:08:06.396Z,11.55
2022-11-12T10:11:06.635Z,14.98
2022-11-12T10:14:18.452Z,10.35
2022-11-12T10:17:31.895Z,13.65
2022-11-12T10:20:37.488Z,12.65
2022-11-12T10:23:34.575Z,11.95
2022-11-12T10:26:23.013Z,13.90
2022-11-12T10:29:11.742Z,17.63
2022-11-12T10:31:57.135Z,15.40
2022-11-12T10:34:42.778Z,12.40
2022-11-12T10:37:28.593Z,11.70
2022-11-12T10:40:31.862Z,18.23
2022-11-12T10:43:17.067Z,12.27
2022-11-12T10:46:27.010Z,12.95
2022-11-12T10:49:16.199Z,12.73
2022-11-12T10:52:01.703Z,15.88
2022-11-12T10:54:52.338Z,13.85
2022-11-12T10:57:40.780Z,15.98
2022-11-12T11:00:26.549Z,11.52
2022-11-12T11:03:34.710Z,13.63
2022-11-12T11:06:24.912Z,11.52
2022-11-12T11:09:13.513Z,13.50
2022-11-12T11:11:59.307Z,12.90
2022-11-12T11:14:44.774Z,15.38
2022-11-12T11:17:30.587Z,17.20
2022-11-12T11:21:00.046Z,11.70
2022-11-12T11:24:03.960Z,11.85
2022-11-12T11:27:05.596Z,13.80
2022-11-12T11:29:50.819Z,9.88
2022-11-12T11:33:06.703Z,10.30
2022-11-12T11:35:55.110Z,11.27
2022-11-12T11:38:54.815Z,10.18
2022-11-12T11:42:07.541Z,11.55
2022-11-12T11:45:05.029Z,11.85
2022-11-12T11:48:08.798Z,12.57
2022-11-12T11:51:12.448Z,12.93
2022-11-12T11:54:32.078Z,11.73
2022-11-12T11:57:26.298Z,8.90
2022-11-12T12:00:23.060Z,12.77
2022-11-12T12:03:23.903Z,9.90
2022-11-12T12:06:26.527Z,10.18
2022-11-12T12:09:18.079Z,9.45
2022-11-12T12:12:16.101Z,10.20
2022-11-12T12:15:30.411Z,8.57
2022-11-12T12:18:29.919Z,8.50
2022-11-12T12:21:21.024Z,11.70
2022-11-12T12:24:25.526Z,10.50
2022-11-12T12:27:24.480Z,7.47
2022-11-12T12:30:19.566Z,10.95
2022-11-12T12:33:29.280Z,8.60
2022-11-12T12:36:20.961Z,9.43
2022-11-12T12:39:50.378Z,10.63
2022-11-12T12:42:59.859Z,10.50
2022-11-12T12:45:47.510Z,9.63
2022-11-12T12:48:36.791Z,10.18
2022-11-12T12:51:22.677Z,11.13
2022-11-12T12:54:36.144Z,16.35
2022-11-12T12:57:39.552Z,12.52
2022-11-12T13:00:31.458Z,10.18
2022-11-12T13:03:58.775Z,9.13
2022-11-12T13:06:47.166Z,8.60
2022-11-12T13:09:33.396Z,13.35
2022-11-12T13:12:19.300Z,8.13
2022-11-12T13:15:15.939Z,12.23
2022-11-12T13:18:01.949Z,8.68
2022-11-12T13:21:14.204Z,10.20
2022-11-12T13:24:08.275Z,8.63
2022-11-12T13:27:00.069Z,9.32
2022-11-12T13:29:47.877Z,13.48
2022-11-12T13:32:42.176Z,8.73
2022-11-12T13:35:35.902Z,10.57
2022-11-12T13:38:22.139Z,12.90
2022-11-12T13:41:19.612Z,9.35
2022-11-12T13:44:09.181Z,7.63
2022-11-12T13:46:56.165Z,8.63
2022-11-12T13:49:43.586Z,9.32
2022-11-12T13:52:29.382Z,7.22
2022-11-12T13:55:16.468Z,6.63
2022-11-12T13:58:01.831Z,8.82
2022-11-12T14:00:57.159Z,13.38
2022-11-12T14:03:46.747Z,8.52
2022-11-12T14:06:38.979Z,8.02
2022-11-12T14:09:51.033Z,9.15
2022-11-12T14:13:00.525Z,7.85
2022-11-12T14:16:21.640Z,7.47
2022-11-12T14:19:18.552Z,9.13
2022-11-12T14:22:18.991Z,8.77
2022-11-12T14:25:11.533Z,20.88
2022-11-12T14:27:57.246Z,10.23
2022-11-12T14:30:45.726Z,7.22
2022-11-12T14:33:32.685Z,9.98
2022-11-12T14:36:19.718Z,8.20
2022-11-12T14:39:06.690Z,9.13
2022-11-12T14:41:53.079Z,9.15
2022-11-12T14:44:39.171Z,13.80
2022-11-12T14:47:24.839Z,7.40
2022-11-12T14:50:17.578Z,12.05
2022-11-12T14:53:11.504Z,7.40
2022-11-12T14:55:58.266Z,9.73
2022-11-12T14:58:44.177Z,16.05
2022-11-12T15:02:20.520Z,8.77
2022-11-12T15:04:50.799Z,10.23
2022-11-12T15:07:52.598Z,11.63
2022-11-12T15:10:45.826Z,10.65
2022-11-12T15:13:40.056Z,11.60
2022-11-12T15:16:32.922Z,10.15
2022-11-12T15:19:25.419Z,10.75
2022-11-12T15:22:21.192Z,8.05
2022-11-12T15:25:30.828Z,9.68
2022-11-12T15:28:25.576Z,9.73
2022-11-12T15:31:22.067Z,9.43
2022-11-12T15:34:26.409Z,9.30
2022-11-12T15:37:19.507Z,13.20
2022-11-12T15:40:15.970Z,12.90
2022-11-12T15:43:02.767Z,13.07
2022-11-12T15:45:50.340Z,19.48
2022-11-12T15:48:36.608Z,16.17
2022-11-12T15:51:22.600Z,16.48
2022-11-12T15:54:08.418Z,16.83
2022-11-12T15:56:53.712Z,15.77
2022-11-12T15:59:39.424Z,18.23
2022-11-12T16:02:25.905Z,17.73
2022-11-12T16:05:15.945Z,20.55
2022-11-12T16:08:01.651Z,18.23
2022-11-12T16:10:47.622Z,17.05
2022-11-12T16:13:34.564Z,15.82
2022-11-12T16:16:19.888Z,16.17
2022-11-12T16:19:17.713Z,14.60
2022-11-12T16:22:04.314Z,8.68
2022-11-12T16:24:49.722Z,13.35
2022-11-12T16:27:38.004Z,15.60
2022-11-12T16:30:27.293Z,10.82
2022-11-12T16:33:13.964Z,11.75
2022-11-12T16:35:59.584Z,13.05
2022-11-12T16:38:46.714Z,9.63
2022-11-12T16:41:32.181Z,12.23
2022-11-12T16:44:17.937Z,10.32
2022-11-12T16:47:04.769Z,10.70
2022-11-12T16:49:50.377Z,11.95
2022-11-12T16:52:35.947Z,11.48
2022-11-12T16:55:22.179Z,15.43
2022-11-12T16:58:07.439Z,12.70
2022-11-12T17:00:53.465Z,20.15
2022-11-12T17:03:39.009Z,15.48
2022-11-12T17:06:36.789Z,11.00
2022-11-12T17:09:22.326Z,12.90
2022-11-12T17:12:08.324Z,15.35
2022-11-12T17:14:53.760Z,14.88
2022-11-12T17:17:39.558Z,15.63
2022-11-12T17:20:25.279Z,18.02
2022-11-12T17:23:10.890Z,20.00
2022-11-12T17:26:04.803Z,24.00
2022-11-12T17:28:55.575Z,24.88
2022-11-12T17:31:49.273Z,19.83
2022-11-12T17:34:35.053Z,24.52
2022-11-12T17:37:20.482Z,20.30
2022-11-12T17:40:07.292Z,19.45
2022-11-12T17:42:53.889Z,19.15
2022-11-12T17:45:49.484Z,29.23
2022-11-12T17:48:37.559Z,23.25
2022-11-12T17:51:28.373Z,26.08
2022-11-12T17:56:58.957Z,24.42
2022-11-12T17:59:44.452Z,31.48
2022-11-12T18:02:29.788Z,26.65
2022-11-12T18:05:15.580Z,27.25
2022-11-12T18:08:01.291Z,34.67
2022-11-12T18:10:47.197Z,60.78
2022-11-12T18:13:33.429Z,54.90
2022-11-12T18:16:24.595Z,35.05
2022-11-12T18:19:11.395Z,31.73
2022-11-12T18:21:57.229Z,26.40
2022-11-12T18:24:42.822Z,23.88
2022-11-12T18:27:28.089Z,27.15
2022-11-12T18:30:19.002Z,20.13
2022-11-12T18:33:05.800Z,27.25
2022-11-12T18:36:01.594Z,26.60
2022-11-12T18:38:50.112Z,21.77
2022-11-12T18:41:36.053Z,22.38
2022-11-12T18:44:25.862Z,25.98
2022-11-12T18:47:11.617Z,26.25
2022-11-12T18:49:57.243Z,26.52
2022-11-12T18:52:43.500Z,38.63
2022-11-12T18:55:29.074Z,26.88
2022-11-12T18:58:14.930Z,32.83
2022-11-12T19:01:10.832Z,27.85
2022-11-12T19:03:57.163Z,25.92
2022-11-12T19:06:42.654Z,30.00
2022-11-12T19:09:28.300Z,33.88
2022-11-12T19:12:13.606Z,39.28
2022-11-12T19:14:59.269Z,45.55
2022-11-12T19:17:45.136Z,36.80
2022-11-12T19:20:31.353Z,30.50
2022-11-12T19:23:17.193Z,23.38
2022-11-12T19:26:04.662Z,18.33
2022-11-12T19:28:50.408Z,18.25
2022-11-12T19:31:36.995Z,17.95
2022-11-12T19:34:24.391Z,13.35
2022-11-12T19:40:20.411Z,15.43
2022-11-12T19:43:06.052Z,12.93
2022-11-12T19:45:53.834Z,13.52
2022-11-12T19:48:40.799Z,13.43
2022-11-12T19:51:27.004Z,11.88
2022-11-12T19:54:13.883Z,15.35
2022-11-12T19:57:01.445Z,8.18
2022-11-12T19:59:48.260Z,10.65
2022-11-12T20:02:35.450Z,10.48
2022-11-12T20:05:21.461Z,10.48
2022-11-12T20:08:09.105Z,11.07
2022-11-12T20:10:55.519Z,18.08
2022-11-12T20:13:41.992Z,19.52
2022-11-12T20:16:29.585Z,28.00
2022-11-12T20:19:15.211Z,35.63
2022-11-12T20:22:00.920Z,30.50
2022-11-12T20:24:47.320Z,40.28
2022-11-12T20:27:33.055Z,50.58
2022-11-12T20:30:18.631Z,42.92
2022-11-12T20:33:06.087Z,40.72
2022-11-12T20:35:51.989Z,36.80
2022-11-12T20:38:40.678Z,26.35
2022-11-12T20:41:27.241Z,21.77
2022-11-12T20:44:13.980Z,17.13
2022-11-12T20:47:01.452Z,12.70
2022-11-12T20:49:46.765Z,11.82
2022-11-12T20:52:32.429Z,12.15
2022-11-12T20:55:18.406Z,14.52
2022-11-12T20:58:03.961Z,11.93
2022-11-12T21:00:50.714Z,14.38
2022-11-12T21:03:37.678Z,14.43
2022-11-12T21:06:26.413Z,17.73
2022-11-12T21:09:11.787Z,44.17
2022-11-12T21:11:57.263Z,66.80
2022-11-12T21:14:47.436Z,50.13
2022-11-12T21:17:35.634Z,51.65
2022-11-12T21:20:21.266Z,40.08
2022-11-12T21:23:06.696Z,35.85
2022-11-12T21:25:52.252Z,34.05
2022-11-12T21:28:38.436Z,30.38
2022-11-12T21:31:25.740Z,33.80
2022-11-12T21:34:11.376Z,33.45
2022-11-12T21:36:57.326Z,33.30
2022-11-12T21:39:42.853Z,32.78
2022-11-12T21:42:28.258Z,33.92
2022-11-12T21:45:14.010Z,32.22
2022-11-12T21:47:59.964Z,27.85
2022-11-12T21:50:45.788Z,27.60
2022-11-12T21:53:30.891Z,27.42
2022-11-12T21:56:18.590Z,20.00
2022-11-12T21:59:04.541Z,19.40
2022-11-12T22:01:49.612Z,19.38
2022-11-12T22:04:35.352Z,22.58
2022-11-12T22:07:20.810Z,18.50
2022-11-12T22:10:06.820Z,16.88
2022-11-12T22:13:19.840Z,13.80
2022-11-12T22:15:58.793Z,16.52
2022-11-12T22:18:47.013Z,21.05
2022-11-12T22:21:39.473Z,16.65
2022-11-12T22:24:25.692Z,17.33
2022-11-12T22:27:11.611Z,21.35
2022-11-12T22:29:57.297Z,16.13
2022-11-12T22:32:42.647Z,19.80
2022-11-12T22:35:28.277Z,17.92
2022-11-12T22:38:13.890Z,20.80
2022-11-12T22:41:08.142Z,24.52
2022-11-12T22:43:59.007Z,23.25
2022-11-12T22:46:44.623Z,15.27
2022-11-12T22:49:29.983Z,17.83
2022-11-12T22:52:15.336Z,17.88
2022-11-12T22:55:00.941Z,20.08
2022-11-12T22:57:46.393Z,24.17
2022-11-12T23:00:32.604Z,25.75
2022-11-12T23:03:17.925Z,18.52
2022-11-12T23:06:06.237Z,19.73
2022-11-12T23:08:55.265Z,18.30
2022-11-12T23:11:40.804Z,14.93
2022-11-12T23:14:26.329Z,15.48
2022-11-12T23:17:11.747Z,11.50
2022-11-12T23:19:57.138Z,15.60
2022-11-12T23:22:42.557Z,12.02
2022-11-12T23:25:29.264Z,12.98
2022-11-12T23:28:14.578Z,13.70
2022-11-12T23:31:00.605Z,13.77
2022-11-12T23:33:47.273Z,12.50
2022-11-12T23:36:33.167Z,12.40
2022-11-12T23:39:18.769Z,14.88
2022-11-12T23:42:04.032Z,14.70
2022-11-12T23:44:49.711Z,12.45
2022-11-12T23:47:35.306Z,13.07
2022-11-12T23:50:20.749Z,13.43
2022-11-12T23:53:06.384Z,14.38
2022-11-12T23:55:51.794Z,13.93
2022-11-12T23:58:38.730Z,11.95
